sensor_id;sensor_type;location;lat;lon;timestamp;pressure;altitude;pressure_sealevel;temperature;humidity
74975;BME280;68459;50.836;19.138;2023-10-13T00:01:09;98687.34;;;13.50;82.12
74975;BME280;68459;50.836;19.138;2023-10-13T00:04:33;98675.34;;;13.46;82.29
74975;BME280;68459;50.836;19.138;2023-10-13T00:07:52;98680.69;;;13.41;82.30
74975;BME280;68459;50.836;19.138;2023-10-13T00:11:14;98677.28;;;13.34;82.08
74975;BME280;68459;50.836;19.138;2023-10-13T00:14:50;98683.31;;;13.25;82.32
74975;BME280;68459;50.836;19.138;2023-10-13T00:18:22;98678.84;;;13.18;82.09
74975;BME280;68459;50.836;19.138;2023-10-13T00:21:41;98687.09;;;13.12;82.89
74975;BME280;68459;50.836;19.138;2023-10-13T00:25:09;98677.78;;;13.08;82.29
74975;BME280;68459;50.836;19.138;2023-10-13T00:28:28;98675.59;;;13.05;82.44
74975;BME280;68459;50.836;19.138;2023-10-13T00:32:06;98678.78;;;13.02;82.16
74975;BME280;68459;50.836;19.138;2023-10-13T00:35:18;98684.06;;;12.97;82.83
74975;BME280;68459;50.836;19.138;2023-10-13T00:38:47;98672.19;;;12.98;82.84
74975;BME280;68459;50.836;19.138;2023-10-13T00:42:04;98677.94;;;13.01;82.74
74975;BME280;68459;50.836;19.138;2023-10-13T00:45:28;98670.66;;;13.02;82.83
74975;BME280;68459;50.836;19.138;2023-10-13T00:48:47;98668.84;;;13.07;82.44
74975;BME280;68459;50.836;19.138;2023-10-13T00:52:05;98666.13;;;13.07;82.70
74975;BME280;68459;50.836;19.138;2023-10-13T00:55:29;98664.16;;;13.03;82.22
74975;BME280;68459;50.836;19.138;2023-10-13T00:58:55;98659.22;;;13.00;82.92
74975;BME280;68459;50.836;19.138;2023-10-13T01:02:12;98663.81;;;12.99;82.67
74975;BME280;68459;50.836;19.138;2023-10-13T01:05:46;98663.00;;;12.99;82.76
74975;BME280;68459;50.836;19.138;2023-10-13T01:09:07;98669.22;;;12.99;82.93
74975;BME280;68459;50.836;19.138;2023-10-13T01:12:43;98664.06;;;12.98;82.64
74975;BME280;68459;50.836;19.138;2023-10-13T01:15:59;98659.03;;;12.90;82.02
74975;BME280;68459;50.836;19.138;2023-10-13T01:19:20;98651.25;;;12.81;82.39
74975;BME280;68459;50.836;19.138;2023-10-13T01:22:41;98660.94;;;12.77;82.51
74975;BME280;68459;50.836;19.138;2023-10-13T01:26:06;98645.16;;;12.74;82.82
74975;BME280;68459;50.836;19.138;2023-10-13T01:29:12;98647.28;;;12.72;82.64
74975;BME280;68459;50.836;19.138;2023-10-13T01:32:32;98648.56;;;12.70;82.88
74975;BME280;68459;50.836;19.138;2023-10-13T01:35:46;98647.66;;;12.64;82.86
74975;BME280;68459;50.836;19.138;2023-10-13T01:39:16;98651.41;;;12.63;83.04
74975;BME280;68459;50.836;19.138;2023-10-13T01:42:36;98642.47;;;12.63;83.25
74975;BME280;68459;50.836;19.138;2023-10-13T01:45:53;98635.06;;;12.58;83.02
74975;BME280;68459;50.836;19.138;2023-10-13T01:49:16;98635.66;;;12.48;83.15
74975;BME280;68459;50.836;19.138;2023-10-13T01:52:35;98640.47;;;12.46;83.41
74975;BME280;68459;50.836;19.138;2023-10-13T01:55:58;98640.25;;;12.48;82.40
74975;BME280;68459;50.836;19.138;2023-10-13T01:59:13;98651.06;;;12.48;82.98
74975;BME280;68459;50.836;19.138;2023-10-13T02:02:46;98655.06;;;12.45;83.35
74975;BME280;68459;50.836;19.138;2023-10-13T02:06:01;98659.50;;;12.40;83.09
74975;BME280;68459;50.836;19.138;2023-10-13T02:09:29;98653.78;;;12.36;82.88
74975;BME280;68459;50.836;19.138;2023-10-13T02:12:39;98649.66;;;12.34;82.66
74975;BME280;68459;50.836;19.138;2023-10-13T02:15:55;98654.47;;;12.32;82.71
74975;BME280;68459;50.836;19.138;2023-10-13T02:19:15;98655.97;;;12.28;82.46
74975;BME280;68459;50.836;19.138;2023-10-13T02:22:33;98655.66;;;12.24;82.73
74975;BME280;68459;50.836;19.138;2023-10-13T02:25:48;98654.94;;;12.17;82.56
74975;BME280;68459;50.836;19.138;2023-10-13T02:29:32;98662.34;;;12.10;83.28
74975;BME280;68459;50.836;19.138;2023-10-13T02:32:54;98662.09;;;12.11;83.67
74975;BME280;68459;50.836;19.138;2023-10-13T02:36:17;98664.91;;;12.17;83.56
74975;BME280;68459;50.836;19.138;2023-10-13T02:39:44;98662.56;;;12.20;83.05
74975;BME280;68459;50.836;19.138;2023-10-13T02:42:56;98665.88;;;12.22;82.47
74975;BME280;68459;50.836;19.138;2023-10-13T02:46:12;98671.38;;;12.27;82.64
74975;BME280;68459;50.836;19.138;2023-10-13T02:49:37;98662.59;;;12.32;83.06
74975;BME280;68459;50.836;19.138;2023-10-13T02:53:01;98668.94;;;12.37;83.22
74975;BME280;68459;50.836;19.138;2023-10-13T02:56:15;98664.47;;;12.43;82.59
74975;BME280;68459;50.836;19.138;2023-10-13T02:59:28;98665.19;;;12.50;83.20
74975;BME280;68459;50.836;19.138;2023-10-13T03:02:50;98661.50;;;12.56;82.66
74975;BME280;68459;50.836;19.138;2023-10-13T03:06:16;98671.75;;;12.54;82.49
74975;BME280;68459;50.836;19.138;2023-10-13T03:09:32;98662.47;;;12.50;82.38
74975;BME280;68459;50.836;19.138;2023-10-13T03:12:40;98656.94;;;12.45;82.10
74975;BME280;68459;50.836;19.138;2023-10-13T03:16:13;98665.06;;;12.45;83.49
74975;BME280;68459;50.836;19.138;2023-10-13T03:19:24;98659.19;;;12.48;82.29
74975;BME280;68459;50.836;19.138;2023-10-13T03:22:54;98662.81;;;12.54;82.26
74975;BME280;68459;50.836;19.138;2023-10-13T03:26:09;98665.28;;;12.55;82.63
74975;BME280;68459;50.836;19.138;2023-10-13T03:29:21;98661.66;;;12.61;83.09
74975;BME280;68459;50.836;19.138;2023-10-13T03:32:37;98659.75;;;12.62;82.65
74975;BME280;68459;50.836;19.138;2023-10-13T03:36:17;98657.28;;;12.60;82.61
74975;BME280;68459;50.836;19.138;2023-10-13T03:40:08;98649.16;;;12.60;82.27
74975;BME280;68459;50.836;19.138;2023-10-13T03:43:31;98644.34;;;12.62;83.00
74975;BME280;68459;50.836;19.138;2023-10-13T03:46:59;98649.03;;;12.67;82.50
74975;BME280;68459;50.836;19.138;2023-10-13T03:50:26;98657.03;;;12.73;82.60
74975;BME280;68459;50.836;19.138;2023-10-13T03:53:42;98655.00;;;12.80;82.81
74975;BME280;68459;50.836;19.138;2023-10-13T03:57:06;98659.13;;;12.83;82.77
74975;BME280;68459;50.836;19.138;2023-10-13T04:00:32;98655.00;;;12.80;82.23
74975;BME280;68459;50.836;19.138;2023-10-13T04:03:46;98644.69;;;12.77;82.12
74975;BME280;68459;50.836;19.138;2023-10-13T04:07:14;98647.41;;;12.77;82.17
74975;BME280;68459;50.836;19.138;2023-10-13T04:10:43;98644.69;;;12.77;82.75
74975;BME280;68459;50.836;19.138;2023-10-13T04:14:16;98640.69;;;12.68;82.36
74975;BME280;68459;50.836;19.138;2023-10-13T04:17:54;98639.63;;;12.58;82.02
74975;BME280;68459;50.836;19.138;2023-10-13T04:21:26;98643.19;;;12.46;82.29
74975;BME280;68459;50.836;19.138;2023-10-13T04:24:50;98642.72;;;12.38;82.63
74975;BME280;68459;50.836;19.138;2023-10-13T04:28:19;98638.94;;;12.27;82.22
74975;BME280;68459;50.836;19.138;2023-10-13T04:31:55;98634.47;;;12.21;83.36
74975;BME280;68459;50.836;19.138;2023-10-13T04:35:24;98637.66;;;12.18;82.90
74975;BME280;68459;50.836;19.138;2023-10-13T04:42:13;98633.19;;;12.24;83.62
74975;BME280;68459;50.836;19.138;2023-10-13T04:45:43;98637.28;;;12.26;83.32
74975;BME280;68459;50.836;19.138;2023-10-13T04:49:00;98644.56;;;12.26;83.08
74975;BME280;68459;50.836;19.138;2023-10-13T04:52:23;98638.59;;;12.24;82.81
74975;BME280;68459;50.836;19.138;2023-10-13T04:56:05;98650.94;;;12.20;82.58
74975;BME280;68459;50.836;19.138;2023-10-13T04:59:36;98646.34;;;12.20;82.97
74975;BME280;68459;50.836;19.138;2023-10-13T05:02:56;98653.50;;;12.26;83.72
74975;BME280;68459;50.836;19.138;2023-10-13T05:06:19;98654.69;;;12.30;82.53
74975;BME280;68459;50.836;19.138;2023-10-13T05:09:50;98658.34;;;12.36;83.27
74975;BME280;68459;50.836;19.138;2023-10-13T05:13:16;98658.00;;;12.44;82.52
74975;BME280;68459;50.836;19.138;2023-10-13T05:17:04;98661.28;;;12.46;83.39
74975;BME280;68459;50.836;19.138;2023-10-13T05:20:30;98669.28;;;12.53;82.94
74975;BME280;68459;50.836;19.138;2023-10-13T05:24:02;98676.22;;;12.60;82.44
74975;BME280;68459;50.836;19.138;2023-10-13T05:27:32;98677.75;;;12.68;83.04
74975;BME280;68459;50.836;19.138;2023-10-13T05:31:03;98677.63;;;12.74;83.36
74975;BME280;68459;50.836;19.138;2023-10-13T05:34:31;98676.44;;;12.82;82.85
74975;BME280;68459;50.836;19.138;2023-10-13T05:37:55;98684.22;;;12.90;82.39
74975;BME280;68459;50.836;19.138;2023-10-13T05:41:35;98684.06;;;12.97;82.85
74975;BME280;68459;50.836;19.138;2023-10-13T05:45:01;98686.97;;;13.07;82.81
74975;BME280;68459;50.836;19.138;2023-10-13T05:48:52;98686.66;;;13.15;82.34
74975;BME280;68459;50.836;19.138;2023-10-13T05:52:31;98681.91;;;13.22;82.79
74975;BME280;68459;50.836;19.138;2023-10-13T05:56:00;98684.25;;;13.30;82.46
74975;BME280;68459;50.836;19.138;2023-10-13T05:59:39;98677.28;;;13.34;83.13
74975;BME280;68459;50.836;19.138;2023-10-13T06:03:09;98688.00;;;13.41;82.46
74975;BME280;68459;50.836;19.138;2023-10-13T06:06:57;98693.94;;;13.54;82.93
74975;BME280;68459;50.836;19.138;2023-10-13T06:10:44;98683.06;;;13.66;82.40
74975;BME280;68459;50.836;19.138;2023-10-13T06:14:21;98685.13;;;13.76;82.24
74975;BME280;68459;50.836;19.138;2023-10-13T06:17:43;98686.94;;;13.87;82.03
74975;BME280;68459;50.836;19.138;2023-10-13T06:21:17;98692.31;;;13.99;82.20
74975;BME280;68459;50.836;19.138;2023-10-13T06:24:42;98692.75;;;14.07;81.91
74975;BME280;68459;50.836;19.138;2023-10-13T06:28:16;98689.47;;;14.22;82.14
74975;BME280;68459;50.836;19.138;2023-10-13T06:31:41;98694.88;;;14.39;81.68
74975;BME280;68459;50.836;19.138;2023-10-13T06:35:23;98686.19;;;14.53;81.58
74975;BME280;68459;50.836;19.138;2023-10-13T06:38:35;98688.00;;;14.65;81.43
74975;BME280;68459;50.836;19.138;2023-10-13T06:42:01;98701.97;;;14.73;81.48
74975;BME280;68459;50.836;19.138;2023-10-13T06:45:16;98702.53;;;14.75;80.34
74975;BME280;68459;50.836;19.138;2023-10-13T06:48:36;98702.53;;;14.75;81.19
74975;BME280;68459;50.836;19.138;2023-10-13T06:52:02;98709.03;;;14.74;80.93
74975;BME280;68459;50.836;19.138;2023-10-13T06:55:26;98722.28;;;14.71;80.69
74975;BME280;68459;50.836;19.138;2023-10-13T06:58:52;98717.66;;;14.71;81.11
74975;BME280;68459;50.836;19.138;2023-10-13T07:02:12;98720.97;;;14.73;81.08
74975;BME280;68459;50.836;19.138;2023-10-13T07:05:43;98713.97;;;14.77;81.54
74975;BME280;68459;50.836;19.138;2023-10-13T07:08:56;98723.00;;;14.83;81.11
74975;BME280;68459;50.836;19.138;2023-10-13T07:12:21;98722.03;;;14.89;81.42
74975;BME280;68459;50.836;19.138;2023-10-13T07:15:45;98721.00;;;14.95;80.98
74975;BME280;68459;50.836;19.138;2023-10-13T07:19:01;98711.63;;;15.03;80.76
74975;BME280;68459;50.836;19.138;2023-10-13T07:22:18;98726.91;;;15.09;80.67
74975;BME280;68459;50.836;19.138;2023-10-13T07:25:27;98718.56;;;15.15;80.52
74975;BME280;68459;50.836;19.138;2023-10-13T07:28:44;98732.78;;;15.22;80.48
74975;BME280;68459;50.836;19.138;2023-10-13T07:32:00;98727.19;;;15.29;80.26
74975;BME280;68459;50.836;19.138;2023-10-13T07:35:21;98732.91;;;15.32;80.38
74975;BME280;68459;50.836;19.138;2023-10-13T07:38:30;98727.31;;;15.39;80.77
74975;BME280;68459;50.836;19.138;2023-10-13T07:41:46;98727.66;;;15.48;80.45
74975;BME280;68459;50.836;19.138;2023-10-13T07:45:14;98721.59;;;15.57;79.99
74975;BME280;68459;50.836;19.138;2023-10-13T07:48:44;98720.63;;;15.68;80.23
74975;BME280;68459;50.836;19.138;2023-10-13T07:52:15;98723.69;;;15.77;80.28
74975;BME280;68459;50.836;19.138;2023-10-13T07:55:47;98727.59;;;15.86;80.05
74975;BME280;68459;50.836;19.138;2023-10-13T07:59:08;98720.88;;;15.94;80.02
74975;BME280;68459;50.836;19.138;2023-10-13T08:02:34;98708.19;;;16.04;79.97
74975;BME280;68459;50.836;19.138;2023-10-13T08:06:19;98712.97;;;16.19;79.52
74975;BME280;68459;50.836;19.138;2023-10-13T08:09:47;98715.47;;;16.26;78.91
74975;BME280;68459;50.836;19.138;2023-10-13T08:13:00;98710.63;;;16.33;79.14
74975;BME280;68459;50.836;19.138;2023-10-13T08:16:38;98712.88;;;16.41;79.11
74975;BME280;68459;50.836;19.138;2023-10-13T08:20:06;98720.84;;;16.48;78.57
74975;BME280;68459;50.836;19.138;2023-10-13T08:23:22;98721.94;;;16.52;78.42
74975;BME280;68459;50.836;19.138;2023-10-13T08:26:50;98720.34;;;16.56;78.04
74975;BME280;68459;50.836;19.138;2023-10-13T08:30:39;98719.38;;;16.67;78.42
74975;BME280;68459;50.836;19.138;2023-10-13T08:34:06;98722.69;;;16.74;78.51
74975;BME280;68459;50.836;19.138;2023-10-13T08:37:26;98717.56;;;16.83;77.63
74975;BME280;68459;50.836;19.138;2023-10-13T08:40:50;98723.34;;;16.91;77.59
74975;BME280;68459;50.836;19.138;2023-10-13T08:44:25;98714.69;;;16.99;77.29
74975;BME280;68459;50.836;19.138;2023-10-13T08:47:43;98720.19;;;17.09;77.02
74975;BME280;68459;50.836;19.138;2023-10-13T08:51:08;98714.78;;;17.20;76.78
74975;BME280;68459;50.836;19.138;2023-10-13T08:54:38;98701.47;;;17.28;76.34
74975;BME280;68459;50.836;19.138;2023-10-13T08:57:57;98690.31;;;17.35;76.17
74975;BME280;68459;50.836;19.138;2023-10-13T09:01:07;98707.53;;;17.45;76.41
74975;BME280;68459;50.836;19.138;2023-10-13T09:04:20;98701.06;;;17.57;76.17
74975;BME280;68459;50.836;19.138;2023-10-13T09:07:44;98700.28;;;17.71;75.88
74975;BME280;68459;50.836;19.138;2023-10-13T09:11:07;98704.97;;;17.81;75.38
74975;BME280;68459;50.836;19.138;2023-10-13T09:14:51;98707.97;;;17.90;74.95
74975;BME280;68459;50.836;19.138;2023-10-13T09:18:09;98714.25;;;18.00;74.74
74975;BME280;68459;50.836;19.138;2023-10-13T09:21:37;98714.03;;;18.07;74.17
74975;BME280;68459;50.836;19.138;2023-10-13T09:25:17;98706.09;;;18.15;74.12
74975;BME280;68459;50.836;19.138;2023-10-13T09:28:47;98709.13;;;18.24;73.32
74975;BME280;68459;50.836;19.138;2023-10-13T09:32:01;98691.66;;;18.30;73.45
74975;BME280;68459;50.836;19.138;2023-10-13T09:35:11;98702.03;;;18.43;73.30
74975;BME280;68459;50.836;19.138;2023-10-13T09:38:26;98693.84;;;18.48;73.15
74975;BME280;68459;50.836;19.138;2023-10-13T09:41:46;98693.84;;;18.48;72.77
74975;BME280;68459;50.836;19.138;2023-10-13T09:45:17;98697.13;;;18.50;72.91
74975;BME280;68459;50.836;19.138;2023-10-13T09:48:38;98690.81;;;18.55;72.30
74975;BME280;68459;50.836;19.138;2023-10-13T09:52:01;98699.31;;;18.59;71.54
74975;BME280;68459;50.836;19.138;2023-10-13T09:55:29;98694.13;;;18.72;71.51
74975;BME280;68459;50.836;19.138;2023-10-13T09:58:57;98706.94;;;18.87;70.80
74975;BME280;68459;50.836;19.138;2023-10-13T10:02:08;98706.94;;;18.87;70.88
74975;BME280;68459;50.836;19.138;2023-10-13T10:05:24;98693.25;;;18.92;70.20
74975;BME280;68459;50.836;19.138;2023-10-13T10:08:42;98699.81;;;18.96;70.76
74975;BME280;68459;50.836;19.138;2023-10-13T10:12:27;98699.53;;;19.03;70.25
74975;BME280;68459;50.836;19.138;2023-10-13T10:15:50;98695.34;;;19.26;69.56
74975;BME280;68459;50.836;19.138;2023-10-13T10:19:09;98694.94;;;19.63;68.82
74975;BME280;68459;50.836;19.138;2023-10-13T10:22:29;98678.84;;;20.00;68.07
74975;BME280;68459;50.836;19.138;2023-10-13T10:26:11;98676.44;;;20.27;66.47
74975;BME280;68459;50.836;19.138;2023-10-13T10:29:39;98676.63;;;20.41;64.58
74975;BME280;68459;50.836;19.138;2023-10-13T10:33:00;98678.88;;;20.34;65.64
74975;BME280;68459;50.836;19.138;2023-10-13T10:36:27;98670.97;;;20.27;65.32
74975;BME280;68459;50.836;19.138;2023-10-13T10:40:07;98673.97;;;20.26;64.48
74975;BME280;68459;50.836;19.138;2023-10-13T10:43:45;98675.06;;;20.30;65.29
74975;BME280;68459;50.836;19.138;2023-10-13T10:47:20;98653.59;;;20.42;64.28
74975;BME280;68459;50.836;19.138;2023-10-13T10:50:58;98667.84;;;20.73;63.10
74975;BME280;68459;50.836;19.138;2023-10-13T10:54:24;98641.09;;;20.89;63.95
74975;BME280;68459;50.836;19.138;2023-10-13T10:58:08;98653.97;;;21.12;63.18
74975;BME280;68459;50.836;19.138;2023-10-13T11:01:43;98647.44;;;21.08;63.13
74975;BME280;68459;50.836;19.138;2023-10-13T11:05:07;98646.81;;;21.16;63.42
74975;BME280;68459;50.836;19.138;2023-10-13T11:08:52;98652.19;;;21.26;63.36
74975;BME280;68459;50.836;19.138;2023-10-13T11:12:13;98642.72;;;21.38;63.54
74975;BME280;68459;50.836;19.138;2023-10-13T11:15:41;98640.78;;;21.38;62.92
74975;BME280;68459;50.836;19.138;2023-10-13T11:19:05;98637.38;;;21.46;62.84
74975;BME280;68459;50.836;19.138;2023-10-13T11:22:22;98631.59;;;21.48;62.30
74975;BME280;68459;50.836;19.138;2023-10-13T11:25:43;98625.09;;;21.62;62.18
74975;BME280;68459;50.836;19.138;2023-10-13T11:28:59;98631.94;;;22.02;60.71
74975;BME280;68459;50.836;19.138;2023-10-13T11:32:22;98624.56;;;22.17;61.25
74975;BME280;68459;50.836;19.138;2023-10-13T11:35:40;98599.75;;;22.22;60.95
74975;BME280;68459;50.836;19.138;2023-10-13T11:39:23;98602.75;;;22.53;60.44
74975;BME280;68459;50.836;19.138;2023-10-13T11:42:38;98605.66;;;22.61;60.31
74975;BME280;68459;50.836;19.138;2023-10-13T11:45:52;98605.38;;;23.04;59.74
74975;BME280;68459;50.836;19.138;2023-10-13T11:49:25;98608.72;;;23.56;58.45
74975;BME280;68459;50.836;19.138;2023-10-13T11:52:47;98621.03;;;23.58;57.51
74975;BME280;68459;50.836;19.138;2023-10-13T11:56:04;98612.38;;;23.87;54.86
74975;BME280;68459;50.836;19.138;2023-10-13T11:59:44;98621.47;;;26.08;51.78
74975;BME280;68459;50.836;19.138;2023-10-13T12:03:13;98615.09;;;27.85;49.96
74975;BME280;68459;50.836;19.138;2023-10-13T12:06:49;98602.81;;;27.15;47.52
74975;BME280;68459;50.836;19.138;2023-10-13T12:10:15;98605.19;;;25.98;51.79
74975;BME280;68459;50.836;19.138;2023-10-13T12:13:28;98587.72;;;25.37;52.29
74975;BME280;68459;50.836;19.138;2023-10-13T12:20:14;98572.25;;;25.10;53.97
74975;BME280;68459;50.836;19.138;2023-10-13T12:23:44;98572.63;;;25.34;53.64
74975;BME280;68459;50.836;19.138;2023-10-13T12:27:01;98587.81;;;25.88;52.81
74975;BME280;68459;50.836;19.138;2023-10-13T12:30:15;98584.56;;;26.76;51.71
74975;BME280;68459;50.836;19.138;2023-10-13T12:33:45;98593.75;;;28.97;47.73
74975;BME280;68459;50.836;19.138;2023-10-13T12:36:59;98594.91;;;30.09;44.72
74975;BME280;68459;50.836;19.138;2023-10-13T12:40:46;98602.22;;;30.57;43.55
74975;BME280;68459;50.836;19.138;2023-10-13T12:44:33;98589.00;;;31.48;41.11
74975;BME280;68459;50.836;19.138;2023-10-13T12:47:59;98574.13;;;31.60;41.96
74975;BME280;68459;50.836;19.138;2023-10-13T12:51:33;98583.53;;;32.26;40.23
74975;BME280;68459;50.836;19.138;2023-10-13T12:55:05;98583.06;;;32.43;40.42
74975;BME280;68459;50.836;19.138;2023-10-13T12:58:31;98570.78;;;33.16;38.92
74975;BME280;68459;50.836;19.138;2023-10-13T13:01:44;98574.56;;;32.36;36.88
74975;BME280;68459;50.836;19.138;2023-10-13T13:04:53;98570.22;;;29.67;41.74
74975;BME280;68459;50.836;19.138;2023-10-13T13:08:28;98545.31;;;27.62;45.23
74975;BME280;68459;50.836;19.138;2023-10-13T13:11:52;98541.66;;;26.53;47.53
74975;BME280;68459;50.836;19.138;2023-10-13T13:15:06;98544.72;;;25.62;48.96
74975;BME280;68459;50.836;19.138;2023-10-13T13:18:15;98537.34;;;25.23;50.18
74975;BME280;68459;50.836;19.138;2023-10-13T13:21:26;98526.75;;;24.99;49.96
74975;BME280;68459;50.836;19.138;2023-10-13T13:24:35;98524.41;;;25.40;49.67
74975;BME280;68459;50.836;19.138;2023-10-13T13:27:52;98528.31;;;25.74;49.31
74975;BME280;68459;50.836;19.138;2023-10-13T13:31:28;98522.78;;;25.56;48.97
74975;BME280;68459;50.836;19.138;2023-10-13T13:34:47;98519.78;;;25.10;49.88
74975;BME280;68459;50.836;19.138;2023-10-13T13:38:24;98504.66;;;24.50;50.56
74975;BME280;68459;50.836;19.138;2023-10-13T13:41:41;98490.13;;;23.97;51.70
74975;BME280;68459;50.836;19.138;2023-10-13T13:44:58;98490.78;;;23.58;52.55
74975;BME280;68459;50.836;19.138;2023-10-13T13:48:10;98489.38;;;23.24;53.11
74975;BME280;68459;50.836;19.138;2023-10-13T13:51:34;98489.41;;;23.10;53.30
74975;BME280;68459;50.836;19.138;2023-10-13T13:54:50;98488.88;;;23.22;53.41
74975;BME280;68459;50.836;19.138;2023-10-13T13:58:07;98496.00;;;23.45;52.89
74975;BME280;68459;50.836;19.138;2023-10-13T14:01:21;98499.22;;;23.39;52.90
74975;BME280;68459;50.836;19.138;2023-10-13T14:04:55;98498.16;;;23.13;53.18
74975;BME280;68459;50.836;19.138;2023-10-13T14:08:35;98488.41;;;22.65;53.89
74975;BME280;68459;50.836;19.138;2023-10-13T14:11:52;98482.59;;;22.26;54.88
74975;BME280;68459;50.836;19.138;2023-10-13T14:15:22;98490.16;;;21.88;55.50
74975;BME280;68459;50.836;19.138;2023-10-13T14:18:54;98489.34;;;21.55;56.56
74975;BME280;68459;50.836;19.138;2023-10-13T14:22:08;98482.63;;;21.28;57.28
74975;BME280;68459;50.836;19.138;2023-10-13T14:25:32;98476.03;;;21.06;57.46
74975;BME280;68459;50.836;19.138;2023-10-13T14:28:50;98471.75;;;20.81;58.38
74975;BME280;68459;50.836;19.138;2023-10-13T14:32:18;98461.50;;;20.68;59.23
74975;BME280;68459;50.836;19.138;2023-10-13T14:35:28;98469.81;;;20.62;59.22
74975;BME280;68459;50.836;19.138;2023-10-13T14:39:01;98462.22;;;20.54;59.69
74975;BME280;68459;50.836;19.138;2023-10-13T14:42:15;98458.22;;;20.47;59.88
74975;BME280;68459;50.836;19.138;2023-10-13T14:45:29;98453.59;;;20.42;60.08
74975;BME280;68459;50.836;19.138;2023-10-13T14:48:59;98456.41;;;20.37;60.28
74975;BME280;68459;50.836;19.138;2023-10-13T14:52:10;98457.53;;;20.31;60.19
74975;BME280;68459;50.836;19.138;2023-10-13T14:55:16;98466.97;;;20.20;60.65
74975;BME280;68459;50.836;19.138;2023-10-13T14:58:36;98446.63;;;20.02;61.11
74975;BME280;68459;50.836;19.138;2023-10-13T15:01:51;98455.53;;;19.89;61.42
74975;BME280;68459;50.836;19.138;2023-10-13T15:05:07;98449.88;;;19.80;61.72
74975;BME280;68459;50.836;19.138;2023-10-13T15:08:24;98448.28;;;19.74;62.26
74975;BME280;68459;50.836;19.138;2023-10-13T15:11:40;98440.13;;;19.69;62.34
74975;BME280;68459;50.836;19.138;2023-10-13T15:14:57;98443.69;;;19.70;62.49
74975;BME280;68459;50.836;19.138;2023-10-13T15:18:16;98446.72;;;19.68;63.49
74975;BME280;68459;50.836;19.138;2023-10-13T15:21:32;98436.22;;;19.75;62.94
74975;BME280;68459;50.836;19.138;2023-10-13T15:24:43;98429.34;;;20.07;62.83
74975;BME280;68459;50.836;19.138;2023-10-13T15:28:19;98432.50;;;20.43;62.24
74975;BME280;68459;50.836;19.138;2023-10-13T15:31:37;98431.69;;;20.42;61.89
74975;BME280;68459;50.836;19.138;2023-10-13T15:35:01;98418.78;;;20.19;62.64
74975;BME280;68459;50.836;19.138;2023-10-13T15:38:14;98405.03;;;20.00;62.76
74975;BME280;68459;50.836;19.138;2023-10-13T15:41:44;98408.81;;;19.80;63.00
74975;BME280;68459;50.836;19.138;2023-10-13T15:44:57;98411.16;;;19.63;63.59
74975;BME280;68459;50.836;19.138;2023-10-13T15:48:13;98412.66;;;19.50;64.24
74975;BME280;68459;50.836;19.138;2023-10-13T15:51:31;98408.63;;;19.38;64.51
74975;BME280;68459;50.836;19.138;2023-10-13T15:54:59;98402.72;;;19.26;65.17
74975;BME280;68459;50.836;19.138;2023-10-13T15:58:05;98407.19;;;19.16;64.84
74975;BME280;68459;50.836;19.138;2023-10-13T16:01:14;98401.22;;;19.09;65.35
74975;BME280;68459;50.836;19.138;2023-10-13T16:04:32;98390.88;;;19.01;65.79
74975;BME280;68459;50.836;19.138;2023-10-13T16:08:11;98398.03;;;18.92;65.79
74975;BME280;68459;50.836;19.138;2023-10-13T16:11:32;98404.94;;;18.84;66.07
74975;BME280;68459;50.836;19.138;2023-10-13T16:14:45;98403.91;;;18.75;66.65
74975;BME280;68459;50.836;19.138;2023-10-13T16:18:01;98411.59;;;18.68;66.42
74975;BME280;68459;50.836;19.138;2023-10-13T16:21:35;98397.16;;;18.58;66.87
74975;BME280;68459;50.836;19.138;2023-10-13T16:24:47;98400.47;;;18.49;67.64
74975;BME280;68459;50.836;19.138;2023-10-13T16:28:21;98395.31;;;18.43;67.19
74975;BME280;68459;50.836;19.138;2023-10-13T16:31:34;98401.91;;;18.37;67.58
74975;BME280;68459;50.836;19.138;2023-10-13T16:34:49;98389.09;;;18.32;68.48
74975;BME280;68459;50.836;19.138;2023-10-13T16:38:14;98386.38;;;18.27;68.22
74975;BME280;68459;50.836;19.138;2023-10-13T16:41:27;98395.97;;;18.20;68.32
74975;BME280;68459;50.836;19.138;2023-10-13T16:48:11;98389.69;;;18.19;69.01
74975;BME280;68459;50.836;19.138;2023-10-13T16:51:34;98380.41;;;18.20;68.73
74975;BME280;68459;50.836;19.138;2023-10-13T16:54:46;98379.59;;;18.20;68.50
74975;BME280;68459;50.836;19.138;2023-10-13T16:57:56;98371.94;;;18.22;69.22
74975;BME280;68459;50.836;19.138;2023-10-13T17:01:23;98378.22;;;18.22;69.08
74975;BME280;68459;50.836;19.138;2023-10-13T17:04:30;98370.03;;;18.22;69.43
74975;BME280;68459;50.836;19.138;2023-10-13T17:07:55;98350.38;;;18.20;69.35
74975;BME280;68459;50.836;19.138;2023-10-13T17:11:09;98348.47;;;18.21;69.29
74975;BME280;68459;50.836;19.138;2023-10-13T17:14:19;98347.38;;;18.22;69.56
74975;BME280;68459;50.836;19.138;2023-10-13T17:17:47;98348.47;;;18.21;69.60
74975;BME280;68459;50.836;19.138;2023-10-13T17:21:16;98351.19;;;18.21;69.51
74975;BME280;68459;50.836;19.138;2023-10-13T17:24:31;98349.56;;;18.20;69.74
74975;BME280;68459;50.836;19.138;2023-10-13T17:27:44;98346.00;;;18.19;70.05
74975;BME280;68459;50.836;19.138;2023-10-13T17:30:57;98332.91;;;18.16;70.06
74975;BME280;68459;50.836;19.138;2023-10-13T17:34:18;98342.47;;;18.13;70.09
74975;BME280;68459;50.836;19.138;2023-10-13T17:37:44;98344.38;;;18.13;70.39
74975;BME280;68459;50.836;19.138;2023-10-13T17:40:54;98335.16;;;18.09;70.39
74975;BME280;68459;50.836;19.138;2023-10-13T17:44:05;98336.53;;;18.06;70.91
74975;BME280;68459;50.836;19.138;2023-10-13T17:47:24;98341.72;;;18.03;70.85
74975;BME280;68459;50.836;19.138;2023-10-13T17:50:43;98341.19;;;18.01;70.87
74975;BME280;68459;50.836;19.138;2023-10-13T17:54:03;98336.81;;;18.00;71.17